Time;durP1;ratioP1;P1;durP2;ratioP2;P2;SDS_P1;SDS_P2;PMS_P1;PMS_P2;Temp;Humidity;BMP_temperature;BMP_pressure;BME280_temperature;BME280_humidity;BME280_pressure;Samples;Min_cycle;Max_cycle;Signal;HPM_P1;HPM_P2
2023/08/27 00:01:00;;;;;;;;;;;19.90;85.30;;;;;;5056244;28;19995;-76
2023/08/27 00:03:26;;;;;;;;;;;19.90;85.40;;;;;;5058627;28;19983;-77
2023/08/27 00:05:53;;;;;;;;;;;19.90;85.50;;;;;;5056049;28;19999;-77
2023/08/27 00:08:19;;;;;;;;;;;19.90;85.50;;;;;;5057157;28;20357;-77
2023/08/27 00:10:46;;;;;;;;;;;19.90;86.30;;;;;;5055245;28;20586;-76
2023/08/27 00:13:12;;;;;;;;;;;19.90;85.60;;;;;;5055578;28;20440;-75
2023/08/27 00:15:44;;;;;;;;;;;19.90;85.70;;;;;;5060856;28;19999;-76
2023/08/27 00:18:12;;;;;;;;;;;19.80;85.60;;;;;;5056048;28;19976;-77
2023/08/27 00:20:40;;;;;;;;;;;19.80;85.70;;;;;;5056061;28;20494;-76
2023/08/27 00:23:07;;;;;;;;;;;19.80;85.80;;;;;;5052199;28;20030;-76
2023/08/27 00:25:34;;;;;;;;;;;19.80;85.80;;;;;;5051759;28;20078;-76
2023/08/27 00:28:00;;;;;;;;;;;19.80;85.90;;;;;;5054644;28;19991;-77
2023/08/27 00:30:27;;;;;;;;;;;19.80;85.90;;;;;;5052571;28;20006;-76
2023/08/27 00:32:53;;;;;;;;;;;19.80;86.00;;;;;;5050335;28;19983;-76
2023/08/27 00:35:21;;;;;;;;;;;19.80;86.10;;;;;;5052954;28;20407;-77
2023/08/27 00:37:48;;;;;;;;;;;19.80;86.10;;;;;;5056246;28;20540;-77
2023/08/27 00:40:14;;;;;;;;;;;19.70;86.10;;;;;;5060945;28;19975;-76
2023/08/27 00:42:41;;;;;;;;;;;19.70;86.20;;;;;;5052565;28;20460;-76
2023/08/27 00:45:08;;;;;;;;;;;19.70;86.20;;;;;;5047140;28;19976;-76
2023/08/27 00:47:36;;;;;;;;;;;19.70;86.30;;;;;;5050274;28;20000;-76
2023/08/27 00:50:03;;;;;;;;;;;19.70;86.40;;;;;;5056421;28;19975;-76
2023/08/27 00:52:31;;;;;;;;;;;19.70;86.40;;;;;;5059654;28;19982;-75
2023/08/27 00:55:00;;;;;;;;;;;19.70;86.40;;;;;;5055335;28;20078;-76
2023/08/27 00:57:26;;;;;;;;;;;19.70;86.50;;;;;;5058530;28;20018;-76
2023/08/27 00:59:53;;;;;;;;;;;19.70;86.50;;;;;;5061311;28;20641;-77
2023/08/27 01:02:20;;;;;;;;;;;19.60;86.50;;;;;;5060837;28;20003;-76
2023/08/27 01:04:46;;;;;;;;;;;19.60;86.60;;;;;;5061780;28;19980;-76
2023/08/27 01:07:16;;;;;;;;;;;19.60;86.60;;;;;;5058466;28;20006;-77
2023/08/27 01:09:46;;;;;;;;;;;19.60;86.60;;;;;;5060451;28;19979;-76
2023/08/27 01:12:15;;;;;;;;;;;19.60;86.70;;;;;;5060414;28;19976;-76
2023/08/27 01:14:47;;;;;;;;;;;19.60;86.70;;;;;;5059926;28;19980;-76
2023/08/27 01:17:15;;;;;;;;;;;19.60;86.70;;;;;;5062095;28;19999;-76
2023/08/27 01:19:43;;;;;;;;;;;19.60;86.80;;;;;;5065391;28;19975;-76
2023/08/27 01:22:10;;;;;;;;;;;19.60;86.90;;;;;;5064907;28;19987;-77
2023/08/27 01:24:37;;;;;;;;;;;19.60;86.90;;;;;;5062011;28;19979;-76
2023/08/27 01:27:06;;;;;;;;;;;19.60;86.90;;;;;;5060075;28;20001;-76
2023/08/27 01:29:34;;;;;;;;;;;19.60;87.00;;;;;;5061200;28;19995;-76
2023/08/27 01:32:04;;;;;;;;;;;19.50;87.00;;;;;;5059150;28;20465;-76
2023/08/27 01:34:31;;;;;;;;;;;19.50;87.00;;;;;;5062084;28;19975;-77
2023/08/27 01:36:58;;;;;;;;;;;19.50;87.10;;;;;;5064967;28;19996;-76
2023/08/27 01:39:26;;;;;;;;;;;19.50;87.10;;;;;;5059023;28;19979;-76
2023/08/27 01:41:53;;;;;;;;;;;19.50;87.20;;;;;;5056116;28;19983;-76
2023/08/27 01:44:19;;;;;;;;;;;19.50;87.20;;;;;;5054137;28;20018;-77
2023/08/27 01:46:46;;;;;;;;;;;19.50;87.20;;;;;;5057924;28;20003;-76
2023/08/27 01:49:12;;;;;;;;;;;19.50;87.30;;;;;;5060562;28;19980;-76
2023/08/27 01:51:39;;;;;;;;;;;19.50;87.40;;;;;;5055861;28;20456;-77
2023/08/27 01:54:06;;;;;;;;;;;19.50;87.40;;;;;;5061673;28;20516;-76
2023/08/27 01:56:34;;;;;;;;;;;19.50;87.50;;;;;;5057112;28;19995;-76
2023/08/27 01:59:00;;;;;;;;;;;19.50;87.50;;;;;;5064029;28;19983;-76
2023/08/27 02:01:27;;;;;;;;;;;19.40;87.50;;;;;;5062899;28;19995;-77
2023/08/27 02:03:53;;;;;;;;;;;19.40;87.50;;;;;;5053320;28;19983;-77
2023/08/27 02:06:20;;;;;;;;;;;19.40;87.60;;;;;;5059799;28;19999;-76
2023/08/27 02:08:46;;;;;;;;;;;19.40;87.60;;;;;;5062213;28;19979;-76
2023/08/27 02:11:13;;;;;;;;;;;19.40;87.70;;;;;;5060336;28;19976;-77
2023/08/27 02:13:41;;;;;;;;;;;19.40;87.70;;;;;;5064075;28;19975;-76
2023/08/27 02:16:07;;;;;;;;;;;19.40;87.80;;;;;;5061690;28;20018;-76
2023/08/27 02:18:34;;;;;;;;;;;19.40;87.80;;;;;;5057943;28;19976;-77
2023/08/27 02:21:02;;;;;;;;;;;19.30;87.80;;;;;;5057122;28;19983;-76
2023/08/27 02:23:28;;;;;;;;;;;19.30;87.90;;;;;;5058300;28;20058;-77
2023/08/27 02:25:55;;;;;;;;;;;19.30;88.00;;;;;;5062178;28;20046;-76
2023/08/27 02:28:22;;;;;;;;;;;19.40;88.00;;;;;;5059512;28;19991;-76
2023/08/27 02:30:54;;;;;;;;;;;19.40;88.10;;;;;;5062261;28;20003;-77
2023/08/27 02:33:20;;;;;;;;;;;19.30;88.20;;;;;;5058116;28;19987;-76
2023/08/27 02:35:47;;;;;;;;;;;19.30;88.20;;;;;;5053783;28;20488;-77
2023/08/27 02:38:14;;;;;;;;;;;19.30;88.20;;;;;;5058917;28;19976;-76
2023/08/27 02:40:40;;;;;;;;;;;19.30;88.30;;;;;;5054093;28;20354;-75
2023/08/27 02:43:08;;;;;;;;;;;19.30;88.30;;;;;;5058693;28;19976;-76
2023/08/27 02:45:34;;;;;;;;;;;19.30;88.40;;;;;;5057455;28;20995;-77
2023/08/27 02:48:02;;;;;;;;;;;19.30;88.40;;;;;;5059593;28;19999;-76
2023/08/27 02:50:29;;;;;;;;;;;19.20;88.40;;;;;;5058959;28;19993;-77
2023/08/27 02:52:55;;;;;;;;;;;19.30;88.50;;;;;;5055999;28;19984;-76
2023/08/27 02:55:22;;;;;;;;;;;19.30;88.50;;;;;;5062307;28;19982;-76
2023/08/27 02:57:48;;;;;;;;;;;19.20;88.50;;;;;;5060575;28;20028;-76
2023/08/27 03:00:15;;;;;;;;;;;19.20;88.60;;;;;;5056945;28;19980;-76
2023/08/27 03:02:42;;;;;;;;;;;19.20;88.60;;;;;;5053269;28;19980;-76
2023/08/27 03:05:10;;;;;;;;;;;19.20;88.70;;;;;;5056579;28;19976;-76
2023/08/27 03:07:36;;;;;;;;;;;19.20;88.70;;;;;;5053287;28;19995;-77
2023/08/27 03:10:03;;;;;;;;;;;19.20;88.80;;;;;;5058262;28;19987;-76
2023/08/27 03:12:30;;;;;;;;;;;19.20;88.80;;;;;;5055683;28;19979;-76
2023/08/27 03:14:56;;;;;;;;;;;19.20;88.80;;;;;;5052583;28;19987;-77
2023/08/27 03:17:23;;;;;;;;;;;19.20;88.90;;;;;;5057977;28;19995;-76
2023/08/27 03:19:49;;;;;;;;;;;19.20;88.90;;;;;;5058785;28;19971;-76
2023/08/27 03:22:17;;;;;;;;;;;19.20;88.90;;;;;;5055033;28;19979;-77
2023/08/27 03:24:44;;;;;;;;;;;19.20;89.00;;;;;;5062805;28;20461;-75
2023/08/27 03:27:10;;;;;;;;;;;19.10;88.90;;;;;;5054955;28;20560;-76
2023/08/27 03:29:37;;;;;;;;;;;19.10;89.70;;;;;;5058298;28;19998;-77
2023/08/27 03:32:04;;;;;;;;;;;19.10;89.10;;;;;;5058866;28;20026;-76
2023/08/27 03:34:30;;;;;;;;;;;19.10;89.10;;;;;;5063154;28;19976;-76
2023/08/27 03:36:57;;;;;;;;;;;19.10;89.20;;;;;;5059788;28;20414;-76
2023/08/27 03:39:25;;;;;;;;;;;19.10;89.20;;;;;;5058079;28;19993;-77
2023/08/27 03:41:51;;;;;;;;;;;19.10;89.30;;;;;;5056578;28;20893;-77
2023/08/27 03:44:18;;;;;;;;;;;19.10;89.40;;;;;;5061126;28;19991;-76
2023/08/27 03:46:44;;;;;;;;;;;19.10;89.40;;;;;;5055961;28;19999;-76
2023/08/27 03:49:11;;;;;;;;;;;19.00;89.40;;;;;;5058435;28;19980;-76
2023/08/27 03:51:37;;;;;;;;;;;19.10;89.50;;;;;;5057013;28;19972;-76
2023/08/27 03:54:04;;;;;;;;;;;19.00;89.50;;;;;;5061429;28;19975;-76
2023/08/27 03:56:32;;;;;;;;;;;19.00;89.50;;;;;;5058855;28;19991;-76
2023/08/27 03:58:59;;;;;;;;;;;19.00;89.50;;;;;;5060453;28;19976;-77
2023/08/27 04:01:25;;;;;;;;;;;19.00;89.60;;;;;;5060679;28;20002;-76
2023/08/27 04:03:53;;;;;;;;;;;19.00;89.60;;;;;;5054762;28;20005;-76
2023/08/27 04:06:19;;;;;;;;;;;19.00;89.60;;;;;;5060939;28;19995;-77
2023/08/27 04:08:46;;;;;;;;;;;19.00;89.60;;;;;;5060943;28;20006;-77
2023/08/27 04:11:12;;;;;;;;;;;19.00;89.70;;;;;;5054532;28;19979;-76
2023/08/27 04:13:40;;;;;;;;;;;19.00;89.70;;;;;;5057388;28;19983;-76
2023/08/27 04:16:08;;;;;;;;;;;19.00;89.70;;;;;;5059906;28;20495;-76
2023/08/27 04:18:34;;;;;;;;;;;19.00;89.70;;;;;;5054079;28;19976;-76
2023/08/27 04:21:01;;;;;;;;;;;19.00;89.80;;;;;;5058931;28;19982;-76
2023/08/27 04:23:28;;;;;;;;;;;19.00;89.80;;;;;;5061551;28;20063;-75
2023/08/27 04:25:55;;;;;;;;;;;19.00;89.90;;;;;;5060661;28;20776;-76
2023/08/27 04:28:22;;;;;;;;;;;19.00;89.90;;;;;;5060390;28;20053;-76
2023/08/27 04:30:50;;;;;;;;;;;19.00;89.90;;;;;;5059353;28;19995;-76
2023/08/27 04:33:17;;;;;;;;;;;19.00;90.00;;;;;;5065095;28;19987;-76
2023/08/27 04:35:47;;;;;;;;;;;18.90;89.90;;;;;;5061777;28;19994;-76
2023/08/27 04:38:13;;;;;;;;;;;18.90;90.00;;;;;;5063097;28;19988;-76
2023/08/27 04:40:40;;;;;;;;;;;18.90;90.00;;;;;;5056287;28;19987;-76
2023/08/27 04:43:07;;;;;;;;;;;18.90;90.00;;;;;;5062227;28;20115;-76
2023/08/27 04:45:34;;;;;;;;;;;18.90;90.00;;;;;;5060057;28;19999;-75
2023/08/27 04:48:02;;;;;;;;;;;18.90;90.00;;;;;;5056938;28;19995;-77
2023/08/27 04:50:28;;;;;;;;;;;18.90;90.00;;;;;;5058908;28;19994;-76
2023/08/27 04:52:55;;;;;;;;;;;18.90;90.00;;;;;;5064245;28;19980;-76
2023/08/27 04:55:21;;;;;;;;;;;18.90;90.00;;;;;;5060803;28;19979;-76
2023/08/27 04:57:48;;;;;;;;;;;18.90;90.10;;;;;;5064766;28;19995;-76
2023/08/27 05:00:20;;;;;;;;;;;18.90;90.10;;;;;;5061757;28;19972;-75
2023/08/27 05:02:46;;;;;;;;;;;18.80;90.10;;;;;;5061561;28;19976;-76
2023/08/27 05:05:14;;;;;;;;;;;18.80;90.10;;;;;;5057946;28;19979;-76
2023/08/27 05:07:41;;;;;;;;;;;18.80;90.10;;;;;;5060836;28;19999;-77
2023/08/27 05:10:08;;;;;;;;;;;18.80;90.10;;;;;;5058307;28;20699;-76
2023/08/27 05:12:34;;;;;;;;;;;18.80;90.10;;;;;;5061212;28;19979;-76
2023/08/27 05:15:01;;;;;;;;;;;18.80;90.10;;;;;;5061558;28;19983;-76
2023/08/27 05:17:28;;;;;;;;;;;18.80;90.20;;;;;;5057239;28;19998;-76
2023/08/27 05:19:54;;;;;;;;;;;18.80;90.20;;;;;;5062246;28;19980;-76
2023/08/27 05:22:22;;;;;;;;;;;18.80;90.20;;;;;;5057541;28;20007;-77
2023/08/27 05:24:49;;;;;;;;;;;18.80;90.20;;;;;;5063490;28;20021;-76
2023/08/27 05:27:15;;;;;;;;;;;18.80;90.20;;;;;;5063804;28;19995;-76
2023/08/27 05:29:42;;;;;;;;;;;18.80;90.20;;;;;;5062679;28;19994;-76
2023/08/27 05:32:09;;;;;;;;;;;18.80;90.20;;;;;;5064326;28;20487;-76
2023/08/27 05:34:35;;;;;;;;;;;18.80;90.20;;;;;;5055299;28;19976;-77
2023/08/27 05:37:02;;;;;;;;;;;18.80;90.20;;;;;;5065928;28;20002;-76
2023/08/27 05:39:30;;;;;;;;;;;18.80;90.30;;;;;;5058372;28;19987;-76
2023/08/27 05:41:57;;;;;;;;;;;18.80;90.30;;;;;;5062257;28;19979;-75
2023/08/27 05:44:23;;;;;;;;;;;18.80;90.30;;;;;;5059909;28;20516;-75
2023/08/27 05:46:50;;;;;;;;;;;18.70;90.30;;;;;;5057616;28;20067;-76
2023/08/27 05:49:16;;;;;;;;;;;18.70;90.30;;;;;;5064875;28;19999;-76
2023/08/27 05:51:43;;;;;;;;;;;18.80;90.30;;;;;;5060069;28;19979;-76
2023/08/27 05:54:09;;;;;;;;;;;18.80;90.30;;;;;;5060438;28;19988;-76
2023/08/27 05:56:37;;;;;;;;;;;18.80;90.30;;;;;;5058842;28;20003;-76
2023/08/27 05:59:04;;;;;;;;;;;18.80;90.40;;;;;;5061352;28;19980;-76
2023/08/27 06:01:31;;;;;;;;;;;18.70;90.40;;;;;;5059178;28;20018;-76
2023/08/27 06:03:57;;;;;;;;;;;18.70;90.40;;;;;;5061014;28;19977;-76
2023/08/27 06:06:24;;;;;;;;;;;18.70;90.40;;;;;;5064461;28;19985;-76
2023/08/27 06:08:50;;;;;;;;;;;18.70;90.40;;;;;;5056863;28;19979;-76
2023/08/27 06:11:17;;;;;;;;;;;18.70;90.40;;;;;;5051737;28;19968;-76
2023/08/27 06:13:45;;;;;;;;;;;18.70;90.40;;;;;;5061180;28;19968;-76
2023/08/27 06:16:10;;;;;;;;;;;18.70;90.40;;;;;;5057397;28;19983;-76
2023/08/27 06:18:37;;;;;;;;;;;18.70;90.40;;;;;;5055194;28;19973;-76
2023/08/27 06:21:04;;;;;;;;;;;18.70;90.50;;;;;;5061717;28;19968;-76
2023/08/27 06:23:30;;;;;;;;;;;18.80;91.00;;;;;;5057316;28;20492;-76
2023/08/27 06:26:02;;;;;;;;;;;18.80;91.30;;;;;;5058643;28;20072;-75
2023/08/27 06:28:29;;;;;;;;;;;18.90;91.50;;;;;;5060427;28;19970;-75
2023/08/27 06:30:57;;;;;;;;;;;18.80;91.50;;;;;;5056208;28;20065;-73
2023/08/27 06:33:23;;;;;;;;;;;18.80;91.60;;;;;;5055288;28;19974;-74
2023/08/27 06:35:50;;;;;;;;;;;18.80;91.50;;;;;;5059250;28;19979;-75
2023/08/27 06:38:17;;;;;;;;;;;18.80;91.50;;;;;;5062428;28;19959;-75
2023/08/27 06:40:43;;;;;;;;;;;18.80;91.50;;;;;;5062073;28;20386;-77
2023/08/27 06:43:10;;;;;;;;;;;18.90;91.60;;;;;;5059493;28;19969;-75
2023/08/27 06:45:36;;;;;;;;;;;18.90;91.60;;;;;;5060185;28;19991;-75
2023/08/27 06:48:05;;;;;;;;;;;18.90;91.70;;;;;;5060980;28;19983;-74
2023/08/27 06:50:31;;;;;;;;;;;18.90;91.70;;;;;;5059977;28;19972;-75
2023/08/27 06:52:58;;;;;;;;;;;18.90;91.70;;;;;;5058563;28;19965;-75
2023/08/27 06:55:25;;;;;;;;;;;18.90;91.60;;;;;;5057464;28;19965;-75
2023/08/27 06:57:52;;;;;;;;;;;18.90;91.50;;;;;;5058674;28;20549;-75
2023/08/27 07:00:19;;;;;;;;;;;18.90;91.50;;;;;;5059689;28;19966;-75
2023/08/27 07:02:46;;;;;;;;;;;18.90;91.40;;;;;;5056367;28;20474;-75
2023/08/27 07:05:13;;;;;;;;;;;18.90;91.40;;;;;;5056202;28;19961;-75
2023/08/27 07:07:40;;;;;;;;;;;19.00;91.30;;;;;;5057456;28;19980;-75
2023/08/27 07:10:07;;;;;;;;;;;19.00;91.30;;;;;;5056430;28;19986;-75
2023/08/27 07:12:35;;;;;;;;;;;19.00;91.20;;;;;;5060235;28;19973;-76
2023/08/27 07:15:01;;;;;;;;;;;19.00;91.20;;;;;;5060653;28;20467;-74
2023/08/27 07:17:28;;;;;;;;;;;19.00;91.10;;;;;;5049927;28;19990;-75
2023/08/27 07:19:54;;;;;;;;;;;19.00;91.00;;;;;;5059030;28;19971;-75
2023/08/27 07:22:22;;;;;;;;;;;19.00;91.00;;;;;;5059568;28;20454;-74
2023/08/27 07:24:49;;;;;;;;;;;19.10;91.00;;;;;;5056049;28;19972;-75
2023/08/27 07:27:15;;;;;;;;;;;19.10;91.00;;;;;;5056016;28;20035;-75
2023/08/27 07:29:42;;;;;;;;;;;19.10;90.90;;;;;;5054880;28;20474;-75
2023/08/27 07:32:09;;;;;;;;;;;19.10;90.90;;;;;;5057429;28;19980;-75
2023/08/27 07:34:35;;;;;;;;;;;19.10;90.90;;;;;;5050896;28;20067;-75
2023/08/27 07:37:02;;;;;;;;;;;19.10;90.80;;;;;;5056895;28;19984;-75
2023/08/27 07:39:30;;;;;;;;;;;19.20;90.80;;;;;;5050756;28;19991;-75
2023/08/27 07:41:56;;;;;;;;;;;19.10;90.90;;;;;;5056884;28;19964;-74
2023/08/27 07:44:23;;;;;;;;;;;19.10;90.70;;;;;;5054350;28;19968;-75
2023/08/27 07:46:49;;;;;;;;;;;19.20;90.70;;;;;;5053024;28;20067;-74
2023/08/27 07:49:16;;;;;;;;;;;19.20;90.70;;;;;;5051420;28;19980;-75
2023/08/27 07:51:42;;;;;;;;;;;19.20;90.70;;;;;;5049606;28;19969;-76
2023/08/27 07:54:09;;;;;;;;;;;19.20;90.70;;;;;;5056471;28;19968;-75
2023/08/27 07:56:37;;;;;;;;;;;19.20;90.70;;;;;;5058016;28;19993;-75
2023/08/27 07:59:03;;;;;;;;;;;19.20;90.60;;;;;;5055786;28;19990;-75
2023/08/27 08:01:31;;;;;;;;;;;19.20;90.60;;;;;;5053428;28;19977;-75
2023/08/27 08:03:57;;;;;;;;;;;19.20;90.60;;;;;;5054358;28;19962;-75
2023/08/27 08:06:24;;;;;;;;;;;19.30;90.60;;;;;;5059005;28;19982;-75
2023/08/27 08:08:50;;;;;;;;;;;19.30;90.60;;;;;;5060306;28;19981;-74
2023/08/27 08:11:17;;;;;;;;;;;19.30;90.60;;;;;;5061950;28;19989;-76
2023/08/27 08:13:45;;;;;;;;;;;19.30;90.60;;;;;;5061271;28;20443;-75
2023/08/27 08:16:11;;;;;;;;;;;19.30;90.60;;;;;;5061244;28;20383;-75
2023/08/27 08:18:38;;;;;;;;;;;19.30;90.60;;;;;;5062685;28;19988;-75
2023/08/27 08:21:05;;;;;;;;;;;19.30;90.60;;;;;;5061397;28;19999;-75
2023/08/27 08:23:31;;;;;;;;;;;19.30;90.60;;;;;;5063371;28;19969;-75
2023/08/27 08:25:59;;;;;;;;;;;19.30;90.50;;;;;;5054582;28;19986;-75
2023/08/27 08:28:26;;;;;;;;;;;19.30;90.60;;;;;;5061727;28;19960;-75
2023/08/27 08:30:53;;;;;;;;;;;19.40;90.60;;;;;;5058073;28;20016;-75
2023/08/27 08:33:20;;;;;;;;;;;19.30;90.50;;;;;;5065056;28;19965;-75
2023/08/27 08:35:47;;;;;;;;;;;19.40;90.60;;;;;;5058791;28;20379;-75
2023/08/27 08:38:13;;;;;;;;;;;19.40;90.50;;;;;;5062500;28;20423;-75
2023/08/27 08:40:44;;;;;;;;;;;19.40;90.60;;;;;;5060539;28;19978;-75
2023/08/27 08:43:13;;;;;;;;;;;19.40;90.60;;;;;;5058089;28;19977;-75
2023/08/27 08:45:44;;;;;;;;;;;19.40;90.60;;;;;;5058864;28;19995;-75
2023/08/27 08:48:12;;;;;;;;;;;19.40;90.90;;;;;;5058720;28;19966;-76
2023/08/27 08:50:41;;;;;;;;;;;19.40;90.50;;;;;;5062282;28;20009;-76
2023/08/27 08:53:12;;;;;;;;;;;19.40;90.80;;;;;;5060781;28;20073;-75
2023/08/27 08:55:41;;;;;;;;;;;19.40;90.50;;;;;;5057893;28;20467;-75
2023/08/27 08:58:09;;;;;;;;;;;19.40;90.50;;;;;;5063317;28;19965;-76
2023/08/27 09:00:36;;;;;;;;;;;19.40;90.50;;;;;;5059526;28;20081;-74
2023/08/27 09:03:04;;;;;;;;;;;19.50;90.50;;;;;;5057431;28;19968;-75
2023/08/27 09:05:32;;;;;;;;;;;19.50;90.50;;;;;;5060456;28;19965;-75
2023/08/27 09:07:59;;;;;;;;;;;19.50;90.50;;;;;;5060524;28;19967;-75
2023/08/27 09:10:26;;;;;;;;;;;19.50;90.50;;;;;;5060848;28;21467;-75
2023/08/27 09:12:55;;;;;;;;;;;19.50;90.50;;;;;;5064700;28;19961;-76
2023/08/27 09:15:22;;;;;;;;;;;19.50;90.50;;;;;;5063581;28;19970;-75
2023/08/27 09:17:49;;;;;;;;;;;19.50;90.40;;;;;;5059173;28;19981;-75
2023/08/27 09:20:15;;;;;;;;;;;19.60;90.40;;;;;;5061141;28;19962;-74
2023/08/27 09:22:43;;;;;;;;;;;19.60;90.40;;;;;;5058107;28;19973;-74
2023/08/27 09:25:10;;;;;;;;;;;19.70;90.30;;;;;;5061435;28;20468;-75
2023/08/27 09:27:36;;;;;;;;;;;19.70;90.30;;;;;;5062154;28;19978;-75
2023/08/27 09:30:03;;;;;;;;;;;19.70;90.20;;;;;;5063123;28;20664;-84
2023/08/27 09:32:30;;;;;;;;;;;19.70;90.20;;;;;;5064352;28;19985;-81
2023/08/27 09:34:58;;;;;;;;;;;19.80;90.30;;;;;;5059862;28;19962;-83
2023/08/27 09:37:26;;;;;;;;;;;19.80;90.20;;;;;;5062245;28;19980;-80
2023/08/27 09:39:54;;;;;;;;;;;19.80;90.20;;;;;;5059595;28;19967;-80
2023/08/27 09:42:21;;;;;;;;;;;19.90;90.20;;;;;;5060811;28;19963;-83
2023/08/27 09:44:48;;;;;;;;;;;19.90;90.20;;;;;;5058323;28;19966;-83
2023/08/27 09:47:15;;;;;;;;;;;19.90;90.10;;;;;;5053126;28;20040;-75
2023/08/27 09:49:43;;;;;;;;;;;19.90;90.10;;;;;;5062435;28;20568;-75
2023/08/27 09:52:09;;;;;;;;;;;19.90;90.10;;;;;;5062028;28;20615;-75
2023/08/27 09:54:37;;;;;;;;;;;19.90;90.00;;;;;;5065230;28;19967;-75
2023/08/27 09:57:16;;;;;;;;;;;19.90;90.00;;;;;;5062216;28;20448;-74
2023/08/27 09:59:43;;;;;;;;;;;20.00;90.00;;;;;;5064908;28;19973;-74
2023/08/27 10:02:12;;;;;;;;;;;20.00;90.00;;;;;;5058623;28;19992;-75
2023/08/27 10:04:47;;;;;;;;;;;20.00;89.90;;;;;;5060339;28;20486;-74
2023/08/27 10:07:14;;;;;;;;;;;20.10;89.90;;;;;;5059232;28;19981;-74
2023/08/27 10:09:40;;;;;;;;;;;20.10;89.80;;;;;;5060815;28;20225;-74
2023/08/27 10:12:09;;;;;;;;;;;20.10;89.60;;;;;;5059512;28;20424;-74
2023/08/27 10:14:40;;;;;;;;;;;20.20;89.60;;;;;;5060313;28;20431;-75
2023/08/27 10:17:06;;;;;;;;;;;20.20;89.40;;;;;;5061484;28;20068;-74
2023/08/27 10:19:34;;;;;;;;;;;20.20;89.20;;;;;;5063492;28;19965;-75
2023/08/27 10:22:00;;;;;;;;;;;20.30;89.20;;;;;;5059210;28;20426;-75
2023/08/27 10:24:28;;;;;;;;;;;20.30;89.00;;;;;;5061466;28;20722;-75
2023/08/27 10:26:57;;;;;;;;;;;20.30;88.90;;;;;;5057730;28;19994;-74
2023/08/27 10:29:25;;;;;;;;;;;20.40;88.80;;;;;;5055225;28;19982;-75
2023/08/27 10:31:53;;;;;;;;;;;20.40;88.70;;;;;;5058714;28;19989;-75
2023/08/27 10:34:19;;;;;;;;;;;20.40;88.50;;;;;;5064383;28;20064;-74
2023/08/27 10:36:47;;;;;;;;;;;20.50;89.20;;;;;;5059577;28;20064;-74
2023/08/27 10:39:14;;;;;;;;;;;20.50;88.30;;;;;;5060402;28;19977;-74
2023/08/27 10:41:41;;;;;;;;;;;20.50;88.10;;;;;;5060946;28;19980;-75
2023/08/27 10:44:10;;;;;;;;;;;20.60;88.10;;;;;;5063464;28;20419;-75
2023/08/27 10:46:37;;;;;;;;;;;20.60;88.00;;;;;;5060452;28;19989;-74
2023/08/27 10:49:15;;;;;;;;;;;20.60;88.20;;;;;;5059831;28;19977;-75
2023/08/27 10:51:42;;;;;;;;;;;20.70;87.70;;;;;;5065287;28;20296;-74
2023/08/27 10:54:08;;;;;;;;;;;20.70;87.90;;;;;;5062271;28;19966;-75
2023/08/27 10:56:36;;;;;;;;;;;20.70;87.80;;;;;;5063556;28;20058;-74
2023/08/27 10:59:04;;;;;;;;;;;20.70;87.60;;;;;;5062132;28;20072;-75
2023/08/27 11:01:34;;;;;;;;;;;20.70;87.50;;;;;;5056452;28;20396;-74
2023/08/27 11:04:04;;;;;;;;;;;20.80;87.60;;;;;;5061791;28;19971;-75
2023/08/27 11:06:37;;;;;;;;;;;20.80;87.40;;;;;;5064988;28;19981;-75
2023/08/27 11:09:11;;;;;;;;;;;20.80;87.20;;;;;;5060018;28;20039;-75
2023/08/27 11:11:40;;;;;;;;;;;20.90;87.10;;;;;;5054974;28;19984;-74
2023/08/27 11:14:08;;;;;;;;;;;20.90;86.80;;;;;;5061945;28;19977;-74
2023/08/27 11:16:43;;;;;;;;;;;21.00;86.70;;;;;;5055771;28;19986;-74
2023/08/27 11:19:11;;;;;;;;;;;21.00;86.60;;;;;;5061773;28;19980;-74
2023/08/27 11:21:56;;;;;;;;;;;21.00;86.30;;;;;;5063038;28;20063;-75
2023/08/27 11:24:24;;;;;;;;;;;21.10;85.80;;;;;;5043882;28;19966;-75
2023/08/27 11:26:51;;;;;;;;;;;21.10;86.10;;;;;;5062490;28;19981;-75
2023/08/27 11:29:18;;;;;;;;;;;21.10;85.80;;;;;;5063946;28;19973;-75
2023/08/27 11:31:45;;;;;;;;;;;21.20;85.20;;;;;;5056829;28;19984;-74
2023/08/27 11:34:13;;;;;;;;;;;21.20;85.30;;;;;;5060272;28;19970;-74
2023/08/27 11:36:40;;;;;;;;;;;21.30;85.10;;;;;;5060804;28;20750;-74
2023/08/27 11:39:09;;;;;;;;;;;21.30;85.10;;;;;;5058497;28;20513;-74
2023/08/27 11:41:36;;;;;;;;;;;21.30;84.60;;;;;;5054848;28;19962;-74
2023/08/27 11:44:04;;;;;;;;;;;21.30;84.90;;;;;;5062013;28;20487;-74
2023/08/27 11:46:30;;;;;;;;;;;21.40;84.80;;;;;;5058884;28;20002;-74
2023/08/27 11:48:57;;;;;;;;;;;21.40;84.80;;;;;;5061557;28;19962;-74
2023/08/27 11:51:25;;;;;;;;;;;21.40;84.40;;;;;;5061206;28;19978;-73
2023/08/27 11:53:52;;;;;;;;;;;21.50;84.10;;;;;;5061449;28;20001;-73
2023/08/27 11:56:19;;;;;;;;;;;21.50;83.90;;;;;;5061495;28;20079;-73
2023/08/27 11:58:46;;;;;;;;;;;21.50;84.10;;;;;;5060440;28;20060;-74
2023/08/27 12:01:12;;;;;;;;;;;21.60;83.80;;;;;;5061731;28;19977;-74
2023/08/27 12:03:39;;;;;;;;;;;21.60;83.20;;;;;;5061798;28;20617;-74
2023/08/27 12:06:05;;;;;;;;;;;21.70;83.20;;;;;;5061147;28;20064;-74
2023/08/27 12:08:36;;;;;;;;;;;21.70;82.60;;;;;;5060737;28;19965;-74
2023/08/27 12:11:02;;;;;;;;;;;21.80;82.70;;;;;;5061714;28;19985;-74
2023/08/27 12:13:29;;;;;;;;;;;21.90;82.30;;;;;;5061220;28;19970;-74
2023/08/27 12:15:56;;;;;;;;;;;22.00;82.00;;;;;;5056337;28;20008;-74
2023/08/27 12:18:23;;;;;;;;;;;22.00;82.00;;;;;;5061448;28;19978;-74
2023/08/27 12:20:49;;;;;;;;;;;22.00;81.80;;;;;;5058432;28;19966;-74
2023/08/27 12:23:16;;;;;;;;;;;22.10;81.50;;;;;;5061924;28;19962;-74
2023/08/27 12:25:48;;;;;;;;;;;22.10;81.00;;;;;;5059489;28;19988;-75
2023/08/27 12:28:15;;;;;;;;;;;22.10;80.60;;;;;;5061311;28;20049;-75
2023/08/27 12:30:46;;;;;;;;;;;22.20;80.60;;;;;;5055942;28;19993;-75
2023/08/27 12:33:12;;;;;;;;;;;22.20;81.20;;;;;;5061859;28;19966;-74
2023/08/27 12:35:39;;;;;;;;;;;22.10;80.50;;;;;;5062013;28;19970;-74
2023/08/27 12:38:06;;;;;;;;;;;22.10;80.60;;;;;;5057693;28;19977;-74
2023/08/27 12:40:33;;;;;;;;;;;22.10;81.00;;;;;;5061599;28;19987;-74
2023/08/27 12:43:00;;;;;;;;;;;22.20;81.00;;;;;;5060231;28;19965;-74
2023/08/27 12:45:27;;;;;;;;;;;22.20;80.60;;;;;;5060806;28;19981;-75
2023/08/27 12:47:54;;;;;;;;;;;22.20;80.00;;;;;;5058243;28;20059;-74
2023/08/27 12:50:20;;;;;;;;;;;22.20;80.60;;;;;;5060058;28;19986;-74
2023/08/27 12:52:47;;;;;;;;;;;22.20;80.50;;;;;;5058078;28;19966;-75
2023/08/27 12:55:14;;;;;;;;;;;22.20;80.30;;;;;;5063557;28;19970;-75
2023/08/27 12:57:41;;;;;;;;;;;22.30;80.50;;;;;;5061656;28;19986;-75
2023/08/27 13:00:10;;;;;;;;;;;22.30;80.60;;;;;;5062405;28;20677;-74
2023/08/27 13:02:36;;;;;;;;;;;22.30;80.60;;;;;;5066032;28;19962;-74
2023/08/27 13:05:04;;;;;;;;;;;22.30;80.40;;;;;;5064184;28;19972;-74
2023/08/27 13:07:31;;;;;;;;;;;22.30;79.50;;;;;;5061574;28;20017;-75
2023/08/27 13:09:57;;;;;;;;;;;22.30;79.70;;;;;;5059334;28;20688;-74
2023/08/27 13:12:24;;;;;;;;;;;22.30;79.40;;;;;;5060340;28;19965;-75
2023/08/27 13:14:50;;;;;;;;;;;22.30;79.30;;;;;;5063869;28;19967;-75
2023/08/27 13:17:20;;;;;;;;;;;22.30;80.00;;;;;;5062568;28;19987;-76
2023/08/27 13:19:47;;;;;;;;;;;22.30;80.20;;;;;;5062559;28;20653;-75
2023/08/27 13:22:13;;;;;;;;;;;22.30;80.50;;;;;;5063619;28;20433;-75
2023/08/27 13:24:40;;;;;;;;;;;22.20;80.60;;;;;;5065446;28;19972;-76
2023/08/27 13:27:06;;;;;;;;;;;22.20;80.60;;;;;;5061935;28;19983;-75
2023/08/27 13:29:34;;;;;;;;;;;22.20;80.50;;;;;;5062115;28;19967;-75
2023/08/27 13:32:00;;;;;;;;;;;22.20;81.00;;;;;;5058060;28;19991;-75
2023/08/27 13:34:28;;;;;;;;;;;22.20;81.60;;;;;;5060121;28;19967;-75
2023/08/27 13:36:56;;;;;;;;;;;22.20;81.70;;;;;;5060357;28;20363;-75
2023/08/27 13:39:22;;;;;;;;;;;22.20;82.10;;;;;;5066454;28;20059;-75
2023/08/27 13:41:49;;;;;;;;;;;22.20;81.80;;;;;;5063028;28;19972;-75
2023/08/27 13:44:15;;;;;;;;;;;22.20;82.10;;;;;;5062780;28;20378;-75
2023/08/27 13:46:43;;;;;;;;;;;22.20;82.10;;;;;;5063213;28;19990;-75
2023/08/27 13:49:09;;;;;;;;;;;22.20;81.80;;;;;;5065560;28;19967;-75
2023/08/27 13:51:37;;;;;;;;;;;22.20;81.50;;;;;;5065466;28;19979;-75
2023/08/27 13:54:05;;;;;;;;;;;22.20;81.60;;;;;;5059447;28;19972;-74
2023/08/27 13:56:31;;;;;;;;;;;22.30;81.40;;;;;;5062142;28;19983;-75
2023/08/27 13:58:58;;;;;;;;;;;22.20;80.80;;;;;;5065626;28;19971;-75
2023/08/27 14:01:25;;;;;;;;;;;22.20;80.30;;;;;;5056558;28;20468;-75
2023/08/27 14:03:51;;;;;;;;;;;22.30;80.20;;;;;;5058783;28;19971;-75
2023/08/27 14:06:18;;;;;;;;;;;22.20;80.90;;;;;;5065253;28;19990;-75
2023/08/27 14:08:46;;;;;;;;;;;22.20;81.30;;;;;;5063692;28;19967;-75
2023/08/27 14:11:12;;;;;;;;;;;22.20;81.20;;;;;;5062175;28;19979;-75
2023/08/27 14:13:44;;;;;;;;;;;22.20;80.70;;;;;;5063442;28;19975;-75
2023/08/27 14:16:10;;;;;;;;;;;22.20;80.60;;;;;;5056287;28;19988;-74